Other Surface Observations
Issued by NWS Great Falls, MT

Home | Current Version | Previous Version | Text Only | Print | Product List | Glossary On
Versions: 1 2 3 4 5 6 7 8 9 10 11 12 13 14 15 16 17 18 19 20 21 22 23 24 25 26 27 28 29 30 31 32 33 34 35 36 37 38 39 40 41 42 43 44 45 46 47 48 49 50
000
SXUS55 KTFX 210044
OSOTFX

AREA AWOS OBSERVATIONS
NATIONAL WEATHER SERVICE GREAT FALLS MT
0644 PM MDT Fri Apr 20 2018

METAR K3U3 210043Z AUTO 03005KT 14/M07 A3011
METAR KS71 210043Z AUTO 27003KT 9SM 18/M06 A3006
METAR K38S 210044Z AUTO 34007KT 10SM 14/M06 A3012
METAR K6S5 210044Z AUTO 02000 10SM 18/M06 A3009
METAR K1S3 210043Z AUTO 03004KT 17/02 A3005
METAR KPWD 210043Z AUTO 13012G16KTKT 10SM 17/03 A3010
METAR KPO1 210043Z AUTO 13011KT  10SM 19/00 A3008



USA.gov is the U.S. government's official web portal to all federal, state and local government web resources and services.